Map

Track Data

SID SEASON NUMBER BASIN SUBBASIN NAME ISO_TIME NATURE LAT LON WMO_WIND WMO_PRES WMO_AGENCY TRACK_TYPE DIST2LAND LANDFALL IFLAG USA_AGENCY USA_ATCF_ID USA_LAT USA_LON USA_RECORD USA_STATUS USA_WIND USA_PRES USA_SSHS USA_R34_NE USA_R34_SE USA_R34_SW USA_R34_NW USA_R50_NE USA_R50_SE USA_R50_SW USA_R50_NW USA_R64_NE USA_R64_SE USA_R64_SW USA_R64_NW USA_POCI USA_ROCI USA_RMW USA_EYE TOKYO_LAT TOKYO_LON TOKYO_GRADE TOKYO_WIND TOKYO_PRES TOKYO_R50_DIR TOKYO_R50_LONG TOKYO_R50_SHORT TOKYO_R30_DIR TOKYO_R30_LONG TOKYO_R30_SHORT TOKYO_LAND CMA_LAT CMA_LON CMA_CAT CMA_WIND CMA_PRES HKO_LAT HKO_LON HKO_CAT HKO_WIND HKO_PRES NEWDELHI_LAT NEWDELHI_LON NEWDELHI_GRADE NEWDELHI_WIND NEWDELHI_PRES NEWDELHI_CI NEWDELHI_DP NEWDELHI_POCI REUNION_LAT REUNION_LON REUNION_TYPE REUNION_WIND REUNION_PRES REUNION_TNUM REUNION_CI REUNION_RMW REUNION_R34_NE REUNION_R34_SE REUNION_R34_SW REUNION_R34_NW REUNION_R50_NE REUNION_R50_SE REUNION_R50_SW REUNION_R50_NW REUNION_R64_NE REUNION_R64_SE REUNION_R64_SW REUNION_R64_NW BOM_LAT BOM_LON BOM_TYPE BOM_WIND BOM_PRES BOM_TNUM BOM_CI BOM_RMW BOM_R34_NE BOM_R34_SE BOM_R34_SW BOM_R34_NW BOM_R50_NE BOM_R50_SE BOM_R50_SW BOM_R50_NW BOM_R64_NE BOM_R64_SE BOM_R64_SW BOM_R64_NW BOM_ROCI BOM_POCI BOM_EYE BOM_POS_METHOD BOM_PRES_METHOD NADI_LAT NADI_LON NADI_CAT NADI_WIND NADI_PRES WELLINGTON_LAT WELLINGTON_LON WELLINGTON_WIND WELLINGTON_PRES DS824_LAT DS824_LON DS824_STAGE DS824_WIND DS824_PRES TD9636_LAT TD9636_LON TD9636_STAGE TD9636_WIND TD9636_PRES TD9635_LAT TD9635_LON TD9635_WIND TD9635_PRES TD9635_ROCI NEUMANN_LAT NEUMANN_LON NEUMANN_CLASS NEUMANN_WIND NEUMANN_PRES MLC_LAT MLC_LON MLC_CLASS MLC_WIND MLC_PRES USA_GUST BOM_GUST BOM_GUST_PER REUNION_GUST REUNION_GUST_PER USA_SEAHGT USA_SEARAD_NE USA_SEARAD_SE USA_SEARAD_SW USA_SEARAD_NW STORM_SPEED STORM_DIR
1921258N18086 1921 47 NI BB NOT_NAMED 1921-09-15 00:00:00 TS 17.5000 86.4000 main 239 239 _________O____ -1 17.5000 86.4000 TC 30 0 0
1921258N18086 1921 47 NI BB NOT_NAMED 1921-09-15 03:00:00 TS 17.5000 86.4000 main 239 239 _________PO___ -1 17.5000 86.4000 TC 30 17.5000 86.4000 1 0 0
1921258N18086 1921 47 NI BB NOT_NAMED 1921-09-15 06:00:00 TS 17.5000 86.4000 main 239 239 _________OP___ -1 17.5000 86.4000 TC 30 17.5000 86.4000 1 0 0
1921258N18086 1921 47 NI BB NOT_NAMED 1921-09-15 09:00:00 TS 17.5000 86.4000 main 239 239 _________PP___ -1 17.5000 86.4000 TC 30 17.5000 86.4000 1 0 0
1921258N18086 1921 47 NI BB NOT_NAMED 1921-09-15 12:00:00 TS 17.5000 86.4000 main 239 239 _________OP___ -1 17.5000 86.4000 TC 30 17.5000 86.4000 1 0 0
1921258N18086 1921 47 NI BB NOT_NAMED 1921-09-15 15:00:00 TS 17.5000 86.4000 main 239 239 _________PO___ -1 17.5000 86.4000 TC 30 17.5000 86.4000 1 0 0
1921258N18086 1921 47 NI BB NOT_NAMED 1921-09-15 18:00:00 TS 17.5000 86.4000 main 239 239 _________OP___ -1 17.5000 86.4000 TC 30 17.5000 86.4000 1 0 0
1921258N18086 1921 47 NI BB NOT_NAMED 1921-09-15 21:00:00 TS 17.5000 86.4000 main 239 239 _________PP___ -1 17.5000 86.4000 TC 30 17.5000 86.4000 1 0 0
1921258N18086 1921 47 NI BB NOT_NAMED 1921-09-16 00:00:00 TS 17.5000 86.4000 main 239 239 _________OP___ -1 17.5000 86.4000 TC 30 17.5000 86.4000 1 0 0
1921258N18086 1921 47 NI BB NOT_NAMED 1921-09-16 03:00:00 TS 17.5000 86.4000 main 239 239 _________PO___ -1 17.5000 86.4000 TC 30 17.5000 86.4000 1 0 0
1921258N18086 1921 47 NI BB NOT_NAMED 1921-09-16 06:00:00 TS 17.5000 86.4000 main 239 239 _________OP___ -1 17.5000 86.4000 TC 30 17.5000 86.4000 1 0 0
1921258N18086 1921 47 NI BB NOT_NAMED 1921-09-16 09:00:00 TS 17.5000 86.4000 main 239 239 _________PP___ -1 17.5000 86.4000 TC 30 17.5000 86.4000 1 0 0
1921258N18086 1921 47 NI BB NOT_NAMED 1921-09-16 12:00:00 TS 17.5000 86.4000 main 239 239 _________OP___ -1 17.5000 86.4000 TC 30 17.5000 86.4000 1 0 0
1921258N18086 1921 47 NI BB NOT_NAMED 1921-09-16 15:00:00 TS 17.5000 86.4000 main 239 239 _________PO___ -1 17.5000 86.4000 TC 30 17.5000 86.4000 1 1 103
1921258N18086 1921 47 NI BB NOT_NAMED 1921-09-16 18:00:00 TS 17.4784 86.4988 main 247 247 _________OP___ -1 17.5000 86.4000 TC 30 17.4569 86.5976 1 2 103
1921258N18086 1921 47 NI BB NOT_NAMED 1921-09-16 21:00:00 TS 17.4448 86.6497 main 263 256 _________PP___ -1 17.4693 86.5347 TC 30 17.4202 86.7647 1 1 104
1921258N18086 1921 47 NI BB NOT_NAMED 1921-09-17 00:00:00 TS 17.4618 86.5748 main 256 207 _________OP___ -1 17.5000 86.4000 TC 30 17.4235 86.7495 1 6 283
1921258N18086 1921 47 NI BB NOT_NAMED 1921-09-17 03:00:00 TS 17.5770 86.0659 main 207 115 _________PO___ -1 17.6541 85.7319 TC 30 17.5000 86.4000 1 15 282
1921258N18086 1921 47 NI BB NOT_NAMED 1921-09-17 06:00:00 TS 17.7801 85.0337 main 107 10 _________OP___ -1 17.9000 84.6000 TC 30 17.6603 85.4674 1 24 281
1921258N18086 1921 47 NI BB NOT_NAMED 1921-09-17 09:00:00 TS 18.0388 83.6285 main 0 0 _________PP___ -1 18.1878 83.0507 TC 30 17.8899 84.2062 1 28 282
1921258N18086 1921 47 NI BB NOT_NAMED 1921-09-17 12:00:00 TS 18.3366 82.1583 main 0 0 _________OP___ -1 18.5000 81.5000 TC 30 18.1733 82.8166 1 26 283
1921258N18086 1921 47 NI BB NOT_NAMED 1921-09-17 15:00:00 TS 18.6340 80.9933 main 0 0 _________PO___ -1 18.7680 80.4865 TC 30 18.5000 81.5000 1 21 288
1921258N18086 1921 47 NI BB NOT_NAMED 1921-09-17 18:00:00 TS 18.9753 80.0850 main 0 0 _________OP___ -1 19.1000 79.7000 TC 30 18.8506 80.4700 1 19 295
1921258N18086 1921 47 NI BB NOT_NAMED 1921-09-17 21:00:00 TS 19.4151 79.1935 main 0 0 _________PP___ -1 19.5850 78.8330 TC 30 19.2453 79.5539 1 18 300
1921258N18086 1921 47 NI BB NOT_NAMED 1921-09-18 00:00:00 TS 19.8836 78.4303 main 0 0 _________OP___ -1 20.1000 78.1000 TC 30 19.6673 78.7606 1 16 305
1921258N18086 1921 47 NI AS NOT_NAMED 1921-09-18 03:00:00 TS 20.3035 77.8409 main 0 0 _________PO___ -1 20.5070 77.5818 TC 30 20.1000 78.1000 1 13 310
1921258N18086 1921 47 NI AS NOT_NAMED 1921-09-18 06:00:00 TS 20.7078 77.3744 main 0 0 _________OP___ -1 20.9000 77.2000 TC 30 20.5156 77.5488 1 12 316
1921258N18086 1921 47 NI AS NOT_NAMED 1921-09-18 09:00:00 TS 21.1449 76.9765 main 0 0 _________PP___ -1 21.3499 76.8273 TC 30 20.9399 77.1256 1 11 322
1921258N18086 1921 47 NI AS NOT_NAMED 1921-09-18 12:00:00 TS 21.5847 76.6449 main 0 0 _________OP___ -1 21.8000 76.5000 TC 30 21.3694 76.7897 1 10 325
1921258N18086 1921 47 NI AS NOT_NAMED 1921-09-18 15:00:00 TS 22.0000 76.3424 main 0 0 _________PO___ -1 22.1999 76.1847 TC 30 21.8000 76.5000 1 10 326
1921258N18086 1921 47 NI AS NOT_NAMED 1921-09-18 18:00:00 TS 22.4286 76.0323 main 0 0 _________OP___ -1 22.6000 75.9000 TC 30 22.2572 76.1646 1 11 328
1921258N18086 1921 47 NI AS NOT_NAMED 1921-09-18 21:00:00 TS 22.8948 75.7476 main 0 0 _________PP___ -1 23.0800 75.6276 TC 30 22.7097 75.8675 1 10 331
1921258N18086 1921 47 NI AS NOT_NAMED 1921-09-19 00:00:00 TS 23.3162 75.5058 main 0 0 _________OP___ -1 23.5000 75.4000 TC 30 23.1323 75.6117 1 8 331
1921258N18086 1921 47 NI AS NOT_NAMED 1921-09-19 03:00:00 TS 23.6150 75.3136 main 0 0 _________PO___ -1 23.7299 75.2272 TC 30 23.5000 75.4000 1 6 328
1921258N18086 1921 47 NI AS NOT_NAMED 1921-09-19 06:00:00 TS 23.8350 75.1514 main 0 0 _________OP___ -1 23.9000 75.1000 TC 30 23.7701 75.2028 1 5 329
1921258N18086 1921 47 NI AS NOT_NAMED 1921-09-19 09:00:00 TS 24.0611 75.0184 main 0 0 _________PP___ -1 24.1350 74.9850 TC 30 23.9872 75.0518 1 5 336
1921258N18086 1921 47 NI AS NOT_NAMED 1921-09-19 12:00:00 TS 24.2929 74.9250 main 0 0 _________OP___ -1 24.4000 74.9000 TC 30 24.1858 74.9500 1 5 343
1921258N18086 1921 47 NI AS NOT_NAMED 1921-09-19 15:00:00 TS 24.5462 74.8563 main 0 0 _________PO___ -1 24.6925 74.8127 TC 30 24.4000 74.9000 1 6 351
1921258N18086 1921 47 NI AS NOT_NAMED 1921-09-19 18:00:00 TS 24.8533 74.8295 main 0 0 _________OP___ -1 25.0000 74.8000 TC 30 24.7066 74.8590 1 6 0
1921258N18086 1921 47 NI AS NOT_NAMED 1921-09-19 21:00:00 TS 25.1760 74.8849 main 0 0 _________PP___ -1 25.3224 74.8974 TC 30 25.0295 74.8725 1 6 16
1921258N18086 1921 47 NI AS NOT_NAMED 1921-09-20 00:00:00 TS 25.4689 75.0248 main 0 0 _________OP___ -1 25.6000 75.1000 TC 30 25.3377 74.9497 1 6 32
1921258N18086 1921 47 NI AS NOT_NAMED 1921-09-20 03:00:00 TS 25.6900 75.2388 main 0 0 _________PO___ -1 25.7800 75.3775 TC 30 25.6000 75.1000 1 6 49
1921258N18086 1921 47 NI AS NOT_NAMED 1921-09-20 06:00:00 TS 25.8417 75.5039 main 0 0 _________OP___ -1 25.9000 75.7000 TC 30 25.7834 75.3078 1 6 61
1921258N18086 1921 47 NI AS NOT_NAMED 1921-09-20 09:00:00 TS 25.9661 75.7826 main 0 0 _________PP___ -1 26.0148 75.9776 TC 30 25.9173 75.5875 1 6 68
1921258N18086 1921 47 NI AS NOT_NAMED 1921-09-20 12:00:00 TS 26.0588 76.1118 main 0 0 _________OP___ -1 26.1000 76.3000 TC 30 26.0176 75.9235 1 7 76
1921258N18086 1921 47 NI AS NOT_NAMED 1921-09-20 15:00:00 TS 26.1251 76.5176 main 0 0 _________PO___ -1 26.1501 76.7352 TC 30 26.1000 76.3000 1 8 80
1921258N18086 1921 47 NI AS NOT_NAMED 1921-09-20 18:00:00 TS 26.1972 76.9709 main 0 0 _________OP___ -1 26.2000 77.2000 TC 30 26.1944 76.7418 1 8 79
1921258N18086 1921 47 NI AS NOT_NAMED 1921-09-20 21:00:00 TS 26.2870 77.4311 main 0 0 _________PP___ -1 26.3001 77.6523 TC 30 26.2739 77.2099 1 8 77
1921258N18086 1921 47 NI AS NOT_NAMED 1921-09-21 00:00:00 TS 26.3706 77.8240 main 0 0 _________OP___ -1 26.4000 78.0000 TC 30 26.3413 77.6480 1 6 76
1921258N18086 1921 47 NI BB NOT_NAMED 1921-09-21 03:00:00 TS 26.4286 78.0726 main 0 0 _________PO___ -1 26.4573 78.1451 TC 30 26.4000 78.0000 1 3 72
1921258N18086 1921 47 NI BB NOT_NAMED 1921-09-21 06:00:00 TS 26.4762 78.1949 main 0 0 _________OP___ -1 26.5000 78.2000 TC 30 26.4523 78.1897 1 2 64
1921258N18086 1921 47 NI BB NOT_NAMED 1921-09-21 09:00:00 TS 26.5245 78.2915 main 0 0 _________PP___ -1 26.5500 78.2925 TC 30 26.4991 78.2904 1 2 58
1921258N18086 1921 47 NI BB NOT_NAMED 1921-09-21 12:00:00 TS 26.5732 78.3730 main 0 0 _________OP___ -1 26.6000 78.4000 TC 30 26.5463 78.3459 1 2 59
1921258N18086 1921 47 NI BB NOT_NAMED 1921-09-21 15:00:00 TS 26.6213 78.4750 main 0 0 _________PO___ -1 26.6425 78.5500 TC 30 26.6000 78.4000 1 2 60
1921258N18086 1921 47 NI BB NOT_NAMED 1921-09-21 18:00:00 TS 26.6797 78.5786 main 0 0 _________OP___ -1 26.7000 78.7000 TC 30 26.6644 78.4876 1 2 54
1921258N18086 1921 47 NI BB NOT_NAMED 1921-09-21 21:00:00 TS 26.7588 78.6893 main 0 0 _________PP___ -1 26.7900 78.8125 TC 30 26.7380 78.6071 1 3 50
1921258N18086 1921 47 NI BB NOT_NAMED 1921-09-22 00:00:00 TS 26.8450 78.7988 main 0 0 _________OP___ -1 26.9000 78.9000 TC 30 26.8176 78.7481 1 2 53
1921258N18086 1921 47 NI BB NOT_NAMED 1921-09-22 03:00:00 NR 26.9000 78.9000 main 0 __________O___ -1 TC 26.9000 78.9000 1 2 58

About IBTrACS Database

This database is a web-friendly format of International Best Track Archive for Climate Stewardship (IBTrACS), a global best track data archive curated by NOAA dating back to 1842.

Updated: 2021-10-08